Time;durP1;ratioP1;P1;durP2;ratioP2;P2;SDS_P1;SDS_P2;PMS_P1;PMS_P2;Temp;Humidity;BMP_temperature;BMP_pressure;BME280_temperature;BME280_humidity;BME280_pressure;Samples;Min_cycle;Max_cycle;Signal;HPM_P1;HPM_P2
2021/09/14 00:01:52;;;;;;;;;;;13.00;99.90;;;;;;5954423;23;20239;-76
2021/09/14 00:04:17;;;;;;;;;;;13.00;99.90;;;;;;5953753;23;25052;-76
2021/09/14 00:06:43;;;;;;;;;;;12.90;99.90;;;;;;5927497;23;20165;-76
2021/09/14 00:09:08;;;;;;;;;;;12.90;99.90;;;;;;5928762;23;20153;-77
2021/09/14 00:11:36;;;;;;;;;;;12.90;99.90;;;;;;5953072;23;20169;-76
2021/09/14 00:14:05;;;;;;;;;;;12.90;99.90;;;;;;5953387;23;25085;-76
2021/09/14 00:16:31;;;;;;;;;;;12.90;99.90;;;;;;5952440;23;25040;-76
2021/09/14 00:18:56;;;;;;;;;;;12.80;99.90;;;;;;5953104;23;20669;-76
2021/09/14 00:21:22;;;;;;;;;;;12.80;99.90;;;;;;5952474;23;25072;-76
2021/09/14 00:23:47;;;;;;;;;;;12.80;99.90;;;;;;5953176;23;25546;-76
2021/09/14 00:26:12;;;;;;;;;;;12.80;99.90;;;;;;5927564;23;25109;-76
2021/09/14 00:28:38;;;;;;;;;;;12.80;99.90;;;;;;5952006;23;25075;-76
2021/09/14 00:31:03;;;;;;;;;;;12.80;99.90;;;;;;5952275;23;25041;-76
2021/09/14 00:33:29;;;;;;;;;;;12.80;99.90;;;;;;5929669;23;25117;-76
2021/09/14 00:35:57;;;;;;;;;;;12.70;99.90;;;;;;5927943;23;25076;-76
2021/09/14 00:38:22;;;;;;;;;;;12.70;99.90;;;;;;5928033;23;25079;-76
2021/09/14 00:40:48;;;;;;;;;;;12.70;99.90;;;;;;5954473;23;20146;-76
2021/09/14 00:43:19;;;;;;;;;;;12.70;99.90;;;;;;5950156;23;20198;-76
2021/09/14 00:45:51;;;;;;;;;;;12.60;99.90;;;;;;5951402;23;25063;-76
2021/09/14 00:48:16;;;;;;;;;;;12.60;99.90;;;;;;5929380;23;25050;-76
2021/09/14 00:50:42;;;;;;;;;;;12.70;99.90;;;;;;5954257;23;25055;-76
2021/09/14 00:53:08;;;;;;;;;;;12.70;99.90;;;;;;5956096;23;25046;-76
2021/09/14 00:55:37;;;;;;;;;;;12.60;99.90;;;;;;5954733;23;20143;-76
2021/09/14 00:58:05;;;;;;;;;;;12.60;99.90;;;;;;5955450;23;25119;-75
2021/09/14 01:00:30;;;;;;;;;;;12.60;99.90;;;;;;5929173;23;25058;-75
2021/09/14 01:02:58;;;;;;;;;;;12.60;99.90;;;;;;5930907;23;25054;-75
2021/09/14 01:05:24;;;;;;;;;;;12.60;99.90;;;;;;5953538;23;20224;-75
2021/09/14 01:07:50;;;;;;;;;;;12.60;99.90;;;;;;5931121;23;20143;-75
2021/09/14 01:10:16;;;;;;;;;;;12.60;99.90;;;;;;5930583;23;25117;-75
2021/09/14 01:12:41;;;;;;;;;;;12.50;99.90;;;;;;5953710;23;20485;-75
2021/09/14 01:15:07;;;;;;;;;;;12.50;99.90;;;;;;5951952;23;25090;-75
2021/09/14 01:17:33;;;;;;;;;;;12.50;99.90;;;;;;5951367;23;25048;-75
2021/09/14 01:20:03;;;;;;;;;;;12.50;99.90;;;;;;5952393;23;20303;-75
2021/09/14 01:22:29;;;;;;;;;;;12.50;99.90;;;;;;5951801;23;25053;-75
2021/09/14 01:24:55;;;;;;;;;;;12.50;99.90;;;;;;5951773;23;25066;-75
2021/09/14 01:27:20;;;;;;;;;;;12.50;99.90;;;;;;5951173;23;25035;-74
2021/09/14 01:32:30;;;;;;;;;;;12.50;99.90;;;;;;5951027;23;20604;-75
2021/09/14 01:35:05;;;;;;;;;;;12.40;99.90;;;;;;5953555;23;20159;-75
2021/09/14 01:37:30;;;;;;;;;;;12.40;99.90;;;;;;5959349;23;25078;-75
2021/09/14 01:39:58;;;;;;;;;;;12.40;99.90;;;;;;5952224;23;25044;-75
2021/09/14 01:42:27;;;;;;;;;;;12.40;99.90;;;;;;5952527;23;20482;-75
2021/09/14 01:44:52;;;;;;;;;;;12.30;99.90;;;;;;5951743;23;20157;-75
2021/09/14 01:47:21;;;;;;;;;;;12.30;99.90;;;;;;5951602;23;25043;-75
2021/09/14 01:49:46;;;;;;;;;;;12.30;99.90;;;;;;5953636;23;20200;-75
2021/09/14 01:52:14;;;;;;;;;;;12.30;99.90;;;;;;5954224;23;25080;-75
2021/09/14 01:54:41;;;;;;;;;;;12.30;99.90;;;;;;5952256;23;25082;-75
2021/09/14 01:57:06;;;;;;;;;;;12.30;99.90;;;;;;5927902;23;20254;-75
2021/09/14 01:59:34;;;;;;;;;;;12.30;99.90;;;;;;5951983;23;25092;-75
2021/09/14 02:02:14;;;;;;;;;;;12.30;99.90;;;;;;5953563;23;25059;-75
2021/09/14 02:43:18;;;;;;;;;;;12.00;99.90;;;;;;5957353;23;25052;-75
2021/09/14 03:00:27;;;;;;;;;;;12.00;99.90;;;;;;5955795;23;25083;-75
2021/09/14 03:03:26;;;;;;;;;;;12.00;99.90;;;;;;5925115;23;20334;-75
2021/09/14 03:06:33;;;;;;;;;;;12.00;99.90;;;;;;5895174;24;25059;-75
2021/09/14 03:09:31;;;;;;;;;;;12.00;99.90;;;;;;5897869;24;20501;-75
2021/09/14 03:12:48;;;;;;;;;;;12.00;99.90;;;;;;5899315;24;20121;-75
2021/09/14 03:16:11;;;;;;;;;;;12.00;99.90;;;;;;5899301;24;25037;-75
2021/09/14 03:18:56;;;;;;;;;;;12.00;99.90;;;;;;5891021;24;25111;-75
2021/09/14 03:22:29;;;;;;;;;;;12.00;99.90;;;;;;5900134;24;20112;-75
2021/09/14 03:25:31;;;;;;;;;;;12.00;99.90;;;;;;5900092;24;20642;-75
2021/09/14 03:28:46;;;;;;;;;;;12.00;99.90;;;;;;5919269;23;25050;-75
2021/09/14 03:31:55;;;;;;;;;;;12.00;99.90;;;;;;5901067;24;25053;-75
2021/09/14 03:34:56;;;;;;;;;;;12.00;99.90;;;;;;5901148;24;20156;-75
2021/09/14 03:37:48;;;;;;;;;;;12.00;99.90;;;;;;5922809;23;25067;-75
2021/09/14 03:40:56;;;;;;;;;;;12.00;99.90;;;;;;5959149;23;25187;-75
2021/09/14 03:44:06;;;;;;;;;;;12.10;99.90;;;;;;5958121;23;25108;-75
2021/09/14 03:47:28;;;;;;;;;;;12.10;99.90;;;;;;5960839;23;25056;-75
2021/09/14 03:50:43;;;;;;;;;;;12.10;99.90;;;;;;5928470;23;25054;-75
2021/09/14 03:53:48;;;;;;;;;;;12.10;99.90;;;;;;5959170;23;25049;-75
2021/09/14 03:57:06;;;;;;;;;;;12.20;99.90;;;;;;5895188;23;20292;-75
2021/09/14 04:00:11;;;;;;;;;;;12.20;99.90;;;;;;5921435;23;20191;-75
2021/09/14 04:03:37;;;;;;;;;;;12.20;99.90;;;;;;5946811;23;25073;-75
2021/09/14 04:09:43;;;;;;;;;;;12.20;99.90;;;;;;5903611;23;25099;-75
2021/09/14 04:12:49;;;;;;;;;;;12.30;99.90;;;;;;5900294;24;25043;-75
2021/09/14 04:19:22;;;;;;;;;;;12.30;99.90;;;;;;5900579;24;20155;-75
2021/09/14 04:22:28;;;;;;;;;;;12.40;99.90;;;;;;5871991;24;25047;-75
2021/09/14 04:25:26;;;;;;;;;;;12.40;99.90;;;;;;5897416;24;20496;-75
2021/09/14 04:28:32;;;;;;;;;;;12.40;99.90;;;;;;5830879;24;25093;-75
2021/09/14 04:31:38;;;;;;;;;;;12.40;99.90;;;;;;5865127;24;25046;-75
2021/09/14 04:34:37;;;;;;;;;;;12.50;99.90;;;;;;5867294;24;25115;-75
2021/09/14 04:37:40;;;;;;;;;;;12.50;99.90;;;;;;5869946;24;20275;-75
2021/09/14 04:40:55;;;;;;;;;;;12.60;99.90;;;;;;5870824;24;20220;-75
2021/09/14 04:44:14;;;;;;;;;;;12.60;99.90;;;;;;5931925;23;25038;-75
2021/09/14 04:47:18;;;;;;;;;;;12.60;99.90;;;;;;5959051;23;25056;-75
2021/09/14 04:50:26;;;;;;;;;;;12.70;99.90;;;;;;5954157;23;25102;-75
2021/09/14 04:53:32;;;;;;;;;;;12.70;99.90;;;;;;5954716;23;20171;-75
2021/09/14 04:56:44;;;;;;;;;;;12.70;99.90;;;;;;5959577;23;25050;-75
2021/09/14 04:59:53;;;;;;;;;;;12.70;99.90;;;;;;5956323;23;25037;-75
2021/09/14 05:08:17;;;;;;;;;;;12.90;99.90;;;;;;5949881;23;25044;-76
2021/09/14 05:10:43;;;;;;;;;;;12.90;99.90;;;;;;5959347;23;20540;-76
2021/09/14 05:15:42;;;;;;;;;;;13.00;99.90;;;;;;5970092;23;20079;-76
2021/09/14 05:18:16;;;;;;;;;;;13.00;99.90;;;;;;5970193;23;25107;-76
2021/09/14 05:20:45;;;;;;;;;;;13.00;99.90;;;;;;5917491;23;25062;-76
2021/09/14 05:23:24;;;;;;;;;;;13.10;99.90;;;;;;5935010;23;20095;-75
2021/09/14 05:25:54;;;;;;;;;;;13.10;99.90;;;;;;5970184;23;20178;-76
2021/09/14 05:28:48;;;;;;;;;;;13.10;99.90;;;;;;5940668;23;25099;-76
2021/09/14 05:31:53;;;;;;;;;;;13.10;99.90;;;;;;5969216;23;20067;-77
2021/09/14 05:34:26;;;;;;;;;;;13.20;99.90;;;;;;5975724;23;20083;-76
2021/09/14 05:37:05;;;;;;;;;;;13.20;99.90;;;;;;5955091;23;20215;-76
2021/09/14 06:18:45;;;;;;;;;;;13.80;99.90;;;;;;5988571;23;20145;-75
2021/09/14 06:21:37;;;;;;;;;;;13.80;99.90;;;;;;5961559;23;25121;-74
2021/09/14 06:24:08;;;;;;;;;;;13.90;99.90;;;;;;5961770;23;20126;-74
2021/09/14 06:26:37;;;;;;;;;;;13.90;99.90;;;;;;5912325;23;19971;-74
2021/09/14 06:29:25;;;;;;;;;;;13.90;99.90;;;;;;5936297;23;20134;-74
2021/09/14 06:32:11;;;;;;;;;;;14.00;99.90;;;;;;5964737;23;25133;-74
2021/09/14 06:34:52;;;;;;;;;;;14.10;99.90;;;;;;5973711;23;19960;-74
2021/09/14 06:37:29;;;;;;;;;;;14.10;99.90;;;;;;5929217;23;25039;-74
2021/09/14 06:40:15;;;;;;;;;;;14.20;99.90;;;;;;5962305;23;19958;-74
2021/09/14 06:42:55;;;;;;;;;;;14.30;99.90;;;;;;5963291;23;20109;-74
2021/09/14 06:45:29;;;;;;;;;;;14.30;99.90;;;;;;5938359;23;20079;-73
2021/09/14 06:48:18;;;;;;;;;;;14.40;99.90;;;;;;5914942;23;20143;-74
2021/09/14 06:51:06;;;;;;;;;;;14.50;99.90;;;;;;5962646;23;20134;-74
2021/09/14 06:54:12;;;;;;;;;;;14.50;99.90;;;;;;5960652;23;20134;-74
2021/09/14 06:56:59;;;;;;;;;;;14.70;99.90;;;;;;5944758;23;25101;-74
2021/09/14 07:05:08;;;;;;;;;;;14.90;99.90;;;;;;6010929;23;20188;-87
2021/09/14 07:07:34;;;;;;;;;;;15.00;99.90;;;;;;5996115;23;25055;-88
2021/09/14 07:10:02;;;;;;;;;;;15.10;99.90;;;;;;5997316;23;20139;-87
2021/09/14 07:12:28;;;;;;;;;;;15.20;99.90;;;;;;5997913;23;20072;-88
2021/09/14 07:14:53;;;;;;;;;;;15.10;99.90;;;;;;5996976;23;25034;-86
2021/09/14 07:17:26;;;;;;;;;;;15.30;99.90;;;;;;5994944;23;20085;-88
2021/09/14 07:19:52;;;;;;;;;;;15.50;99.90;;;;;;5994525;23;20111;-88
2021/09/14 07:22:17;;;;;;;;;;;15.60;99.90;;;;;;5994692;23;25043;-88
2021/09/14 07:24:43;;;;;;;;;;;15.40;99.90;;;;;;5994744;23;25053;-89
2021/09/14 07:27:08;;;;;;;;;;;15.70;99.90;;;;;;5994391;23;20109;-87
2021/09/14 07:29:35;;;;;;;;;;;15.80;99.90;;;;;;5993741;23;25043;-88
2021/09/14 07:32:01;;;;;;;;;;;15.90;99.90;;;;;;5993383;23;25077;-88
2021/09/14 07:34:29;;;;;;;;;;;15.90;99.90;;;;;;5992992;23;19978;-87
2021/09/14 07:36:54;;;;;;;;;;;16.00;99.90;;;;;;5991646;23;25098;-90
2021/09/14 07:39:20;;;;;;;;;;;16.00;99.90;;;;;;5992715;23;20109;-89
2021/09/14 07:41:45;;;;;;;;;;;16.00;99.90;;;;;;5992900;23;20200;-88
2021/09/14 07:44:11;;;;;;;;;;;16.00;99.90;;;;;;5992028;23;20098;-89
2021/09/14 07:46:36;;;;;;;;;;;16.10;99.90;;;;;;5992233;23;20125;-89
2021/09/14 07:49:02;;;;;;;;;;;16.20;99.90;;;;;;5991261;23;20125;-89
2021/09/14 07:51:29;;;;;;;;;;;16.10;99.90;;;;;;5992256;23;20132;-87
2021/09/14 07:53:54;;;;;;;;;;;16.20;99.90;;;;;;5993831;23;20013;-88
2021/09/14 07:56:20;;;;;;;;;;;16.30;99.90;;;;;;5990385;23;25075;-90
2021/09/14 07:58:45;;;;;;;;;;;16.20;99.90;;;;;;5992690;23;20134;-91
2021/09/14 08:01:11;;;;;;;;;;;16.30;99.90;;;;;;5992981;23;20093;-87
2021/09/14 08:03:36;;;;;;;;;;;16.40;99.90;;;;;;5990885;23;19968;-89
2021/09/14 08:06:02;;;;;;;;;;;16.40;99.90;;;;;;5991700;23;25061;-87
2021/09/14 08:08:27;;;;;;;;;;;16.50;99.90;;;;;;5991909;23;25042;-89
2021/09/14 08:10:53;;;;;;;;;;;16.50;99.90;;;;;;5990761;23;25039;-89
2021/09/14 08:13:18;;;;;;;;;;;16.60;99.90;;;;;;5990931;23;20212;-88
2021/09/14 08:15:44;;;;;;;;;;;16.70;99.90;;;;;;5989574;23;25067;-88
2021/09/14 08:18:09;;;;;;;;;;;16.70;99.90;;;;;;5988201;23;20178;-88
2021/09/14 08:20:35;;;;;;;;;;;16.80;99.90;;;;;;5989432;23;20494;-88
2021/09/14 08:23:00;;;;;;;;;;;16.90;99.90;;;;;;5992186;23;20096;-88
2021/09/14 08:25:26;;;;;;;;;;;16.90;99.90;;;;;;5988787;23;25043;-89
2021/09/14 08:27:51;;;;;;;;;;;17.00;99.90;;;;;;5990730;23;25057;-89
2021/09/14 08:30:17;;;;;;;;;;;17.10;99.90;;;;;;5988056;23;25053;-89
2021/09/14 08:32:42;;;;;;;;;;;17.10;99.90;;;;;;5988427;23;20167;-89
2021/09/14 08:35:08;;;;;;;;;;;17.20;99.90;;;;;;5986197;23;25043;-89
2021/09/14 08:37:33;;;;;;;;;;;17.20;99.90;;;;;;5985190;23;25044;-89
2021/09/14 08:39:59;;;;;;;;;;;17.30;99.90;;;;;;5982445;23;25034;-89
2021/09/14 08:42:25;;;;;;;;;;;17.40;99.90;;;;;;5987428;23;20068;-86
2021/09/14 08:44:51;;;;;;;;;;;17.50;99.90;;;;;;5988169;23;20130;-90
2021/09/14 08:47:17;;;;;;;;;;;17.50;99.90;;;;;;5987279;23;20343;-86
2021/09/14 08:49:43;;;;;;;;;;;17.70;99.90;;;;;;5985448;23;25103;-86
2021/09/14 08:52:11;;;;;;;;;;;17.80;99.90;;;;;;5986803;23;19957;-90
2021/09/14 08:54:36;;;;;;;;;;;18.00;99.90;;;;;;5985754;23;20115;-90
2021/09/14 08:57:02;;;;;;;;;;;18.00;99.90;;;;;;5982061;23;20443;-88
2021/09/14 08:59:29;;;;;;;;;;;18.00;99.90;;;;;;5982358;23;20106;-89
2021/09/14 09:01:57;;;;;;;;;;;18.10;99.90;;;;;;5983891;23;20206;-91
2021/09/14 09:04:23;;;;;;;;;;;18.20;99.90;;;;;;5982102;23;20138;-89
2021/09/14 09:06:49;;;;;;;;;;;18.30;99.90;;;;;;5981047;23;25062;-91
2021/09/14 09:09:19;;;;;;;;;;;18.20;99.90;;;;;;5980102;23;20069;-90
2021/09/14 09:12:11;;;;;;;;;;;18.30;99.90;;;;;;5983369;23;25083;-89
2021/09/14 09:14:41;;;;;;;;;;;18.30;99.90;;;;;;5998611;23;25059;-91
2021/09/14 09:17:14;;;;;;;;;;;18.40;99.90;;;;;;5981982;23;20078;-88
2021/09/14 09:19:40;;;;;;;;;;;18.50;99.90;;;;;;5982053;23;25103;-87
2021/09/14 09:22:07;;;;;;;;;;;18.70;99.90;;;;;;5980989;23;20158;-89
2021/09/14 09:24:43;;;;;;;;;;;18.70;99.90;;;;;;5980248;23;25054;-92
2021/09/14 09:27:12;;;;;;;;;;;18.80;99.90;;;;;;5980455;23;20088;-87
2021/09/14 09:29:37;;;;;;;;;;;18.80;99.90;;;;;;5977586;23;25034;-93
2021/09/14 09:32:03;;;;;;;;;;;19.10;99.90;;;;;;5978061;23;20099;-87
2021/09/14 09:34:29;;;;;;;;;;;19.00;99.90;;;;;;5977990;23;25042;-89
2021/09/14 09:37:05;;;;;;;;;;;19.10;99.90;;;;;;5977565;23;25049;-87
2021/09/14 09:39:44;;;;;;;;;;;19.20;99.90;;;;;;5979895;23;20454;-87
2021/09/14 09:42:10;;;;;;;;;;;19.30;99.90;;;;;;5980187;23;20093;-87
2021/09/14 09:44:36;;;;;;;;;;;19.40;99.90;;;;;;5981370;23;19968;-90
2021/09/14 09:47:04;;;;;;;;;;;19.50;99.90;;;;;;5977276;23;25087;-87
2021/09/14 09:49:30;;;;;;;;;;;19.40;99.90;;;;;;5981649;23;20086;-88
2021/09/14 09:51:58;;;;;;;;;;;19.60;99.90;;;;;;5979451;23;25042;-84
2021/09/14 09:54:24;;;;;;;;;;;19.50;99.90;;;;;;5977034;23;20100;-87
2021/09/14 09:56:49;;;;;;;;;;;19.70;99.90;;;;;;5974591;23;20095;-86
2021/09/14 09:59:15;;;;;;;;;;;19.80;99.90;;;;;;5973586;23;20130;-89
2021/09/14 10:01:59;;;;;;;;;;;19.90;99.90;;;;;;5973324;23;20132;-88
2021/09/14 10:04:26;;;;;;;;;;;20.00;99.90;;;;;;5973552;23;25043;-90
2021/09/14 10:06:53;;;;;;;;;;;19.90;99.90;;;;;;5973456;23;25061;-87
2021/09/14 10:09:20;;;;;;;;;;;19.90;99.90;;;;;;5975449;23;24746;-90
2021/09/14 10:11:55;;;;;;;;;;;20.00;99.90;;;;;;5979512;23;25099;-88
2021/09/14 10:14:21;;;;;;;;;;;20.00;99.90;;;;;;5976714;23;25132;-91
2021/09/14 10:16:46;;;;;;;;;;;20.20;99.90;;;;;;5973797;23;25066;-87
2021/09/14 10:19:28;;;;;;;;;;;20.20;99.90;;;;;;5971678;23;20066;-87
2021/09/14 10:22:05;;;;;;;;;;;20.20;99.90;;;;;;5993819;23;20135;-93
2021/09/14 10:24:31;;;;;;;;;;;20.30;99.90;;;;;;5996526;23;20134;-89
2021/09/14 10:27:03;;;;;;;;;;;20.40;99.90;;;;;;5996410;23;25033;-91
2021/09/14 10:29:28;;;;;;;;;;;20.40;99.90;;;;;;5980650;23;20111;-93
2021/09/14 10:32:01;;;;;;;;;;;20.50;99.90;;;;;;5976015;23;25043;-92
2021/09/14 10:34:27;;;;;;;;;;;20.60;99.90;;;;;;5975881;23;20143;-90
2021/09/14 10:37:03;;;;;;;;;;;20.80;99.90;;;;;;5973537;23;20100;-86
2021/09/14 10:39:32;;;;;;;;;;;20.80;99.90;;;;;;5976638;23;20161;-87
2021/09/14 10:41:57;;;;;;;;;;;20.90;99.90;;;;;;5975521;23;20410;-89
2021/09/14 10:44:27;;;;;;;;;;;21.00;99.90;;;;;;5995542;23;20115;-92
2021/09/14 10:47:06;;;;;;;;;;;21.10;99.90;;;;;;5995983;23;25045;-92
2021/09/14 10:49:44;;;;;;;;;;;21.20;99.90;;;;;;5996831;23;25055;-90
2021/09/14 10:52:10;;;;;;;;;;;21.30;99.90;;;;;;5997611;23;25038;-90
2021/09/14 10:55:02;;;;;;;;;;;21.40;99.90;;;;;;5995613;23;25054;-90
2021/09/14 10:57:34;;;;;;;;;;;21.50;99.90;;;;;;5993223;23;25041;-89
2021/09/14 11:00:00;;;;;;;;;;;21.60;99.90;;;;;;5976006;23;19995;-87
2021/09/14 11:02:26;;;;;;;;;;;21.80;99.90;;;;;;5974515;23;25113;-89
2021/09/14 11:04:51;;;;;;;;;;;21.80;99.90;;;;;;5974408;23;20122;-89
2021/09/14 11:07:20;;;;;;;;;;;21.80;99.90;;;;;;5973713;23;25080;-88
2021/09/14 11:09:51;;;;;;;;;;;21.80;99.90;;;;;;5975126;23;20108;-87
2021/09/14 11:12:18;;;;;;;;;;;22.00;99.90;;;;;;5974216;23;19972;-89
2021/09/14 11:14:43;;;;;;;;;;;22.10;99.90;;;;;;5973375;23;20061;-89
2021/09/14 11:17:09;;;;;;;;;;;22.20;99.90;;;;;;5972876;23;20162;-91
2021/09/14 11:19:34;;;;;;;;;;;22.20;99.90;;;;;;5972278;23;25078;-89
2021/09/14 11:22:00;;;;;;;;;;;22.20;99.90;;;;;;5972299;23;19967;-91
2021/09/14 11:24:25;;;;;;;;;;;22.30;99.90;;;;;;5973154;23;25045;-90
2021/09/14 11:26:51;;;;;;;;;;;22.60;99.90;;;;;;5970501;23;20529;-90
2021/09/14 11:29:17;;;;;;;;;;;22.60;99.90;;;;;;5970670;23;25104;-90
2021/09/14 11:31:42;;;;;;;;;;;22.80;99.90;;;;;;5970293;23;19982;-89
2021/09/14 11:34:08;;;;;;;;;;;23.00;99.90;;;;;;5972288;23;25096;-91
2021/09/14 11:36:34;;;;;;;;;;;23.20;99.90;;;;;;5968068;23;24895;-88
2021/09/14 11:39:00;;;;;;;;;;;23.30;99.90;;;;;;5968253;23;25107;-90
2021/09/14 11:41:30;;;;;;;;;;;23.50;99.90;;;;;;5971657;23;19973;-89
2021/09/14 11:43:56;;;;;;;;;;;23.60;99.90;;;;;;5967456;23;25045;-92
2021/09/14 11:46:21;;;;;;;;;;;23.70;99.90;;;;;;5968926;23;25105;-90
2021/09/14 11:48:54;;;;;;;;;;;23.90;99.90;;;;;;5973442;23;20206;-90
2021/09/14 11:51:20;;;;;;;;;;;24.00;99.90;;;;;;5970412;23;20144;-91
2021/09/14 11:53:49;;;;;;;;;;;24.10;99.90;;;;;;5994943;23;20131;-88
2021/09/14 11:56:15;;;;;;;;;;;24.20;99.90;;;;;;5994098;23;25057;-89
2021/09/14 11:58:43;;;;;;;;;;;24.20;99.90;;;;;;5966214;23;25040;-88
2021/09/14 12:01:09;;;;;;;;;;;24.20;99.90;;;;;;5969913;23;20113;-91
2021/09/14 12:03:44;;;;;;;;;;;24.20;99.90;;;;;;5968980;23;20066;-92
2021/09/14 12:06:10;;;;;;;;;;;24.40;99.90;;;;;;5967762;23;25053;-92
2021/09/14 12:08:38;;;;;;;;;;;24.50;99.90;;;;;;5971147;23;25043;-88
2021/09/14 12:11:04;;;;;;;;;;;24.80;99.90;;;;;;5995263;23;20458;-89
2021/09/14 12:13:40;;;;;;;;;;;25.00;99.90;;;;;;5970701;23;25039;-86
2021/09/14 12:16:09;;;;;;;;;;;25.20;99.90;;;;;;5970802;23;20099;-86
2021/09/14 12:18:34;;;;;;;;;;;25.40;99.90;;;;;;5992017;23;25056;-88
2021/09/14 12:21:00;;;;;;;;;;;25.30;99.90;;;;;;5970744;23;25051;-88
2021/09/14 12:23:25;;;;;;;;;;;25.30;99.90;;;;;;5971870;23;20116;-89
2021/09/14 12:25:51;;;;;;;;;;;25.40;99.90;;;;;;5967615;23;20152;-84
2021/09/14 12:28:16;;;;;;;;;;;25.60;99.90;;;;;;5994683;23;25087;-85
2021/09/14 12:30:42;;;;;;;;;;;25.90;99.90;;;;;;5970834;23;20631;-85
2021/09/14 12:33:08;;;;;;;;;;;26.20;99.90;;;;;;5973234;23;25033;-84
2021/09/14 12:35:34;;;;;;;;;;;26.40;99.90;;;;;;5995778;23;20480;-85
2021/09/14 12:37:59;;;;;;;;;;;26.60;99.90;;;;;;5966259;23;25087;-84
2021/09/14 12:40:25;;;;;;;;;;;26.90;99.90;;;;;;5966939;23;25053;-86
2021/09/14 12:42:50;;;;;;;;;;;27.00;99.90;;;;;;5964297;23;25057;-87
2021/09/14 12:45:16;;;;;;;;;;;27.10;99.90;;;;;;5964249;23;20114;-85
2021/09/14 12:47:41;;;;;;;;;;;27.10;99.90;;;;;;5964490;23;25051;-84
2021/09/14 12:50:07;;;;;;;;;;;27.30;99.90;;;;;;5963685;23;25093;-89
2021/09/14 12:52:33;;;;;;;;;;;27.50;99.90;;;;;;5994061;23;20100;-85
2021/09/14 12:54:58;;;;;;;;;;;27.80;99.90;;;;;;5967643;23;20101;-86
2021/09/14 12:57:24;;;;;;;;;;;28.10;99.90;;;;;;5959184;23;20126;-85
2021/09/14 12:59:49;;;;;;;;;;;28.20;99.90;;;;;;5993955;23;25075;-87
2021/09/14 13:02:15;;;;;;;;;;;28.50;99.90;;;;;;5964420;23;25068;-86
2021/09/14 13:04:40;;;;;;;;;;;29.20;99.90;;;;;;5963674;23;25054;-87
2021/09/14 13:07:06;;;;;;;;;;;30.70;99.90;;;;;;5963586;23;25058;-87
2021/09/14 13:09:31;;;;;;;;;;;32.00;99.90;;;;;;5972230;23;20458;-85
2021/09/14 13:11:57;;;;;;;;;;;33.40;99.90;;;;;;5972615;23;20218;-85
2021/09/14 13:17:09;;;;;;;;;;;36.50;99.90;;;;;;6009060;23;20603;-87
2021/09/14 13:19:35;;;;;;;;;;;37.20;94.80;;;;;;5995674;23;20112;-86
2021/09/14 13:22:00;;;;;;;;;;;36.40;92.30;;;;;;5997955;23;25072;-86
2021/09/14 13:24:26;;;;;;;;;;;35.40;91.80;;;;;;5974505;23;19955;-87
2021/09/14 13:26:51;;;;;;;;;;;34.10;93.00;;;;;;5966690;23;20159;-86
2021/09/14 13:29:16;;;;;;;;;;;33.30;94.60;;;;;;5972179;23;20101;-87
2021/09/14 13:31:42;;;;;;;;;;;34.10;95.30;;;;;;5998011;23;25072;-86
2021/09/14 13:34:07;;;;;;;;;;;35.50;93.00;;;;;;5971563;23;19975;-86
2021/09/14 13:36:33;;;;;;;;;;;35.90;91.50;;;;;;5967249;23;20221;-87
2021/09/14 13:38:58;;;;;;;;;;;35.50;89.40;;;;;;5975881;23;25042;-84
2021/09/14 13:41:30;;;;;;;;;;;35.20;88.30;;;;;;5978676;23;20402;-85
2021/09/14 13:43:59;;;;;;;;;;;35.50;91.00;;;;;;5976388;23;25102;-84
2021/09/14 13:46:25;;;;;;;;;;;35.70;88.90;;;;;;5975117;23;19971;-85
2021/09/14 13:48:54;;;;;;;;;;;35.60;89.10;;;;;;6005380;23;25040;-84
2021/09/14 13:51:20;;;;;;;;;;;35.70;87.60;;;;;;5980293;23;19966;-87
2021/09/14 13:53:47;;;;;;;;;;;35.70;90.00;;;;;;5980981;23;19953;-84
2021/09/14 13:56:20;;;;;;;;;;;35.60;88.70;;;;;;5976376;23;20124;-85
2021/09/14 13:58:46;;;;;;;;;;;35.00;85.20;;;;;;5977487;23;25049;-85
2021/09/14 14:01:11;;;;;;;;;;;34.20;87.70;;;;;;5977814;23;20118;-85
2021/09/14 14:03:37;;;;;;;;;;;33.50;88.40;;;;;;5974507;23;19955;-88
2021/09/14 14:06:03;;;;;;;;;;;32.60;90.30;;;;;;5974488;23;20136;-87
2021/09/14 14:08:28;;;;;;;;;;;31.90;90.60;;;;;;5975085;23;20429;-87
2021/09/14 14:10:53;;;;;;;;;;;31.20;92.50;;;;;;5975681;23;20003;-91
2021/09/14 14:13:19;;;;;;;;;;;30.30;93.40;;;;;;5975344;23;20073;-90
2021/09/14 14:15:44;;;;;;;;;;;29.50;94.00;;;;;;5974840;23;20142;-88
2021/09/14 14:18:10;;;;;;;;;;;29.10;96.30;;;;;;5975447;23;20143;-91
2021/09/14 14:20:35;;;;;;;;;;;28.50;97.10;;;;;;5975672;23;20238;-88
2021/09/14 14:23:01;;;;;;;;;;;28.20;98.40;;;;;;5976278;23;20318;-88
2021/09/14 14:25:26;;;;;;;;;;;27.80;99.80;;;;;;5976550;23;25056;-89
2021/09/14 14:27:52;;;;;;;;;;;27.60;99.90;;;;;;5976720;23;25044;-88
2021/09/14 14:30:17;;;;;;;;;;;27.40;99.90;;;;;;5978468;23;19956;-88
2021/09/14 14:32:43;;;;;;;;;;;27.10;99.90;;;;;;5976604;23;25022;-87
2021/09/14 14:35:08;;;;;;;;;;;27.00;99.90;;;;;;6002702;23;20015;-88
2021/09/14 14:37:34;;;;;;;;;;;26.80;99.90;;;;;;5979595;23;25044;-89
2021/09/14 14:39:59;;;;;;;;;;;26.50;99.90;;;;;;5980392;23;25047;-88
2021/09/14 14:42:25;;;;;;;;;;;26.40;99.90;;;;;;5979499;23;20503;-89
2021/09/14 14:44:50;;;;;;;;;;;26.20;99.90;;;;;;5981961;23;20229;-88
2021/09/14 14:47:15;;;;;;;;;;;26.10;99.90;;;;;;5976831;23;25062;-89
2021/09/14 14:49:41;;;;;;;;;;;26.00;99.90;;;;;;5978129;23;19975;-89
2021/09/14 14:52:06;;;;;;;;;;;26.00;99.90;;;;;;5979324;23;20098;-88
2021/09/14 14:54:32;;;;;;;;;;;25.80;99.90;;;;;;5980391;23;20060;-88
2021/09/14 14:56:57;;;;;;;;;;;25.60;99.90;;;;;;6005948;23;20082;-88
2021/09/14 14:59:23;;;;;;;;;;;25.60;99.90;;;;;;5983012;23;19974;-88
2021/09/14 15:01:48;;;;;;;;;;;25.70;99.90;;;;;;5984309;23;20079;-88
2021/09/14 15:04:14;;;;;;;;;;;25.50;99.90;;;;;;5981375;23;20074;-88
2021/09/14 15:06:39;;;;;;;;;;;25.50;99.90;;;;;;5979436;23;20113;-89
2021/09/14 15:09:05;;;;;;;;;;;25.40;99.90;;;;;;5982410;23;20085;-88
2021/09/14 15:11:30;;;;;;;;;;;25.40;99.90;;;;;;5982103;23;20098;-87
2021/09/14 15:13:56;;;;;;;;;;;25.30;99.90;;;;;;5981910;23;20132;-88
2021/09/14 15:16:22;;;;;;;;;;;25.30;99.90;;;;;;5981082;23;20101;-88
2021/09/14 15:18:47;;;;;;;;;;;25.20;99.90;;;;;;6008127;23;20098;-88
2021/09/14 15:21:12;;;;;;;;;;;25.20;99.90;;;;;;5983280;23;19964;-86
2021/09/14 15:23:38;;;;;;;;;;;25.10;99.90;;;;;;5982016;23;20515;-88
2021/09/14 15:26:03;;;;;;;;;;;25.00;99.90;;;;;;5981959;23;20094;-86
2021/09/14 15:28:29;;;;;;;;;;;24.90;99.90;;;;;;5982733;23;20155;-88
2021/09/14 15:30:56;;;;;;;;;;;24.90;99.90;;;;;;5981552;23;20083;-89
2021/09/14 15:33:22;;;;;;;;;;;24.80;99.90;;;;;;5982551;23;20085;-86
2021/09/14 15:35:48;;;;;;;;;;;24.80;99.90;;;;;;5982677;23;20072;-85
2021/09/14 15:38:36;;;;;;;;;;;24.70;99.90;;;;;;5982431;23;20566;-86
2021/09/14 15:41:07;;;;;;;;;;;24.70;99.90;;;;;;6008021;23;19968;-87
2021/09/14 15:43:34;;;;;;;;;;;24.70;99.90;;;;;;5982998;23;20054;-88
2021/09/14 15:46:00;;;;;;;;;;;24.50;99.90;;;;;;5981566;23;25058;-89
2021/09/14 15:48:26;;;;;;;;;;;24.50;99.90;;;;;;5983839;23;19963;-88
2021/09/14 15:50:52;;;;;;;;;;;24.50;99.90;;;;;;5982489;23;20133;-89
2021/09/14 15:53:18;;;;;;;;;;;24.40;99.90;;;;;;5981344;23;20317;-87
2021/09/14 15:55:45;;;;;;;;;;;24.40;99.90;;;;;;5982808;23;25061;-87
2021/09/14 15:58:10;;;;;;;;;;;24.30;99.90;;;;;;5981006;23;19978;-89
2021/09/14 16:00:36;;;;;;;;;;;24.20;99.90;;;;;;5983493;23;20097;-89
2021/09/14 16:03:01;;;;;;;;;;;24.20;99.90;;;;;;6009825;23;20082;-89
2021/09/14 16:05:27;;;;;;;;;;;24.20;99.90;;;;;;5983206;23;20320;-88
2021/09/14 16:07:53;;;;;;;;;;;24.10;99.90;;;;;;5984621;23;19969;-89
2021/09/14 16:10:18;;;;;;;;;;;24.00;99.90;;;;;;6007359;23;20101;-89
2021/09/14 16:12:44;;;;;;;;;;;24.00;99.90;;;;;;5985224;23;25083;-88
2021/09/14 16:15:09;;;;;;;;;;;24.00;99.90;;;;;;5983679;23;20004;-88
2021/09/14 16:17:35;;;;;;;;;;;23.90;99.90;;;;;;5982953;23;20203;-87
2021/09/14 16:20:01;;;;;;;;;;;23.90;99.90;;;;;;5983176;23;25032;-88
2021/09/14 16:22:29;;;;;;;;;;;23.90;99.90;;;;;;6008078;23;20035;-87
2021/09/14 16:24:55;;;;;;;;;;;23.80;99.90;;;;;;5983012;23;20068;-89
2021/09/14 16:27:21;;;;;;;;;;;23.80;99.90;;;;;;5981343;23;25054;-88
2021/09/14 16:29:48;;;;;;;;;;;23.70;99.90;;;;;;5982933;23;19992;-88
2021/09/14 16:32:13;;;;;;;;;;;23.70;99.90;;;;;;5981355;23;20028;-94
2021/09/14 16:34:39;;;;;;;;;;;23.60;99.90;;;;;;5981034;23;20082;-88
2021/09/14 16:37:04;;;;;;;;;;;23.60;99.90;;;;;;5983865;23;20132;-89
2021/09/14 16:39:30;;;;;;;;;;;23.50;99.90;;;;;;5988779;23;19959;-89
2021/09/14 16:41:55;;;;;;;;;;;23.40;99.90;;;;;;5987536;23;20115;-89
2021/09/14 16:44:21;;;;;;;;;;;23.50;99.90;;;;;;5989705;23;25046;-89